Time;durP1;ratioP1;P1;durP2;ratioP2;P2;SDS_P1;SDS_P2;PMS_P1;PMS_P2;Temp;Humidity;BMP_temperature;BMP_pressure;BME280_temperature;BME280_humidity;BME280_pressure;Samples;Min_cycle;Max_cycle;Signal;HPM_P1;HPM_P2
2023/08/20 00:00:19;;;;;;;11.80;5.18;;;;;;;;;;5049029;28;20410;-79
2023/08/20 00:02:47;;;;;;;11.38;5.28;;;16.80;99.90;;;;;;5033778;28;20410;-79
2023/08/20 00:05:14;;;;;;;10.63;5.20;;;;;;;;;;5031148;28;20415;-79
2023/08/20 00:07:40;;;;;;;12.10;5.63;;;16.90;99.90;;;;;;5039738;28;20457;-80
2023/08/20 00:10:07;;;;;;;11.65;5.03;;;16.90;99.90;;;;;;5035311;28;20412;-79
2023/08/20 00:12:32;;;;;;;10.13;5.25;;;16.80;99.90;;;;;;5021110;28;20432;-78
2023/08/20 00:15:06;;;;;;;11.30;5.28;;;16.90;99.90;;;;;;5038587;28;20423;-79
2023/08/20 00:17:37;;;;;;;9.60;5.07;;;16.70;99.90;;;;;;5019668;28;20419;-79
2023/08/20 00:20:14;;;;;;;9.93;5.07;;;16.70;99.90;;;;;;5026852;28;20443;-78
2023/08/20 00:22:45;;;;;;;13.98;5.50;;;16.90;99.90;;;;;;5025205;28;20927;-78
2023/08/20 00:25:12;;;;;;;12.93;5.63;;;16.70;99.90;;;;;;5033431;28;20452;-78
2023/08/20 00:27:39;;;;;;;12.40;5.70;;;16.90;99.90;;;;;;5071857;28;20464;-79
2023/08/20 00:30:05;;;;;;;12.55;5.15;;;16.80;99.90;;;;;;5032908;28;20412;-80
2023/08/20 00:32:31;;;;;;;13.73;5.93;;;16.70;99.90;;;;;;5019217;28;20416;-80
2023/08/20 00:34:57;;;;;;;14.13;5.45;;;;;;;;;;5024194;28;20937;-80
2023/08/20 00:37:23;;;;;;;10.82;5.18;;;16.80;99.90;;;;;;5021437;28;20420;-79
2023/08/20 00:39:48;;;;;;;10.27;4.47;;;16.80;99.90;;;;;;5019900;28;20419;-80
2023/08/20 00:42:14;;;;;;;12.30;4.83;;;16.60;99.90;;;;;;5037955;28;20494;-79
2023/08/20 00:44:46;;;;;;;11.73;4.70;;;16.60;99.90;;;;;;5041063;28;20415;-80
2023/08/20 00:47:13;;;;;;;10.10;4.65;;;16.80;99.90;;;;;;5053428;28;20419;-79
2023/08/20 00:49:40;;;;;;;9.10;4.73;;;16.70;99.90;;;;;;5024677;28;20496;-79
2023/08/20 00:52:08;;;;;;;9.20;4.55;;;16.70;99.90;;;;;;5036724;28;20420;-80
2023/08/20 00:54:35;;;;;;;13.65;4.78;;;16.50;99.90;;;;;;5038292;28;20995;-79
2023/08/20 00:57:02;;;;;;;12.23;4.90;;;16.40;99.90;;;;;;5036796;28;20506;-80
2023/08/20 00:59:31;;;;;;;10.90;5.03;;;16.30;99.90;;;;;;5024603;28;20420;-79
2023/08/20 01:01:58;;;;;;;8.02;4.68;;;16.40;99.90;;;;;;5028070;28;20416;-80
2023/08/20 01:04:24;;;;;;;11.98;4.85;;;16.40;99.90;;;;;;5034904;28;20455;-80
2023/08/20 01:06:55;;;;;;;10.90;5.10;;;16.30;99.90;;;;;;5030050;28;20464;-80
2023/08/20 01:09:42;;;;;;;8.65;5.22;;;16.30;99.90;;;;;;5031006;28;20417;-78
2023/08/20 01:12:11;;;;;;;13.02;5.80;;;16.40;99.90;;;;;;5057319;28;20429;-79
2023/08/20 01:14:37;;;;;;;12.25;5.63;;;;;;;;;;5027888;28;20430;-79
2023/08/20 01:17:03;;;;;;;12.10;5.80;;;16.30;99.90;;;;;;5049212;28;20423;-79
2023/08/20 01:19:29;;;;;;;9.63;5.70;;;16.20;99.90;;;;;;5000345;28;20429;-79
2023/08/20 01:22:21;;;;;;;12.60;6.60;;;16.20;99.90;;;;;;4987079;28;20508;-78
2023/08/20 01:25:34;;;;;;;14.38;6.53;;;16.30;99.90;;;;;;5025612;28;20435;-78
2023/08/20 01:28:18;;;;;;;13.63;7.30;;;16.20;99.90;;;;;;5043203;28;20437;-78
2023/08/20 01:30:44;;;;;;;15.75;6.80;;;16.40;99.90;;;;;;5047635;28;20430;-77
2023/08/20 01:33:12;;;;;;;12.80;6.88;;;16.30;99.90;;;;;;5023349;28;20425;-77
2023/08/20 01:35:38;;;;;;;14.38;6.80;;;15.90;99.90;;;;;;5035612;28;20507;-77
2023/08/20 01:38:04;;;;;;;13.25;6.50;;;16.10;99.90;;;;;;5018639;28;20420;-78
2023/08/20 01:40:31;;;;;;;15.68;7.50;;;16.10;99.90;;;;;;5033887;28;20417;-78
2023/08/20 01:42:57;;;;;;;13.88;6.88;;;16.20;99.90;;;;;;5025523;28;20518;-78
2023/08/20 01:45:23;;;;;;;13.40;7.35;;;16.10;99.90;;;;;;5044070;28;20451;-78
2023/08/20 01:47:48;;;;;;;13.80;7.85;;;16.00;99.90;;;;;;5033426;28;20465;-79
2023/08/20 01:50:14;;;;;;;17.90;7.97;;;;;;;;;;5061962;28;20514;-78
2023/08/20 01:52:40;;;;;;;20.83;8.13;;;16.00;99.90;;;;;;5035739;28;20429;-78
2023/08/20 01:55:06;;;;;;;14.95;8.55;;;;;;;;;;5035751;28;20537;-79
2023/08/20 01:57:32;;;;;;;18.20;8.82;;;16.00;99.90;;;;;;5066662;28;20777;-78
2023/08/20 01:59:58;;;;;;;16.20;8.30;;;15.80;99.90;;;;;;5051982;28;20411;-78
2023/08/20 02:02:24;;;;;;;16.90;9.25;;;15.80;99.90;;;;;;5035415;28;20420;-78
2023/08/20 02:04:50;;;;;;;15.50;8.63;;;15.90;99.90;;;;;;5052135;28;20421;-79
2023/08/20 02:07:16;;;;;;;15.17;8.60;;;15.80;99.90;;;;;;5028668;28;20527;-79
2023/08/20 02:09:43;;;;;;;17.83;9.02;;;;;;;;;;5039291;28;20408;-79
2023/08/20 02:12:09;;;;;;;15.52;8.60;;;15.70;99.90;;;;;;5041028;28;20510;-79
2023/08/20 02:14:35;;;;;;;16.85;8.88;;;15.80;99.90;;;;;;5035116;28;20482;-79
2023/08/20 02:17:03;;;;;;;18.13;9.73;;;15.80;99.90;;;;;;5002200;28;20426;-79
2023/08/20 02:19:29;;;;;;;16.90;9.75;;;15.70;99.90;;;;;;5015265;28;20430;-79
2023/08/20 02:21:56;;;;;;;16.08;9.95;;;;;;;;;;5056515;28;20450;-79
2023/08/20 02:24:21;;;;;;;18.10;9.63;;;15.90;99.90;;;;;;5038860;28;20872;-79
2023/08/20 02:26:47;;;;;;;19.87;9.97;;;16.10;99.90;;;;;;5036096;28;20429;-78
2023/08/20 02:29:13;;;;;;;20.17;9.80;;;15.90;99.90;;;;;;5037353;28;20408;-78
2023/08/20 02:31:38;;;;;;;19.25;9.90;;;15.70;99.90;;;;;;5018893;28;20796;-79
2023/08/20 02:34:04;;;;;;;20.63;11.10;;;15.80;99.90;;;;;;5015685;28;20413;-79
2023/08/20 02:36:30;;;;;;;18.03;10.10;;;;;;;;;;5035602;28;20426;-79
2023/08/20 02:38:56;;;;;;;15.87;10.17;;;16.00;99.90;;;;;;5036507;28;20471;-79
2023/08/20 02:41:22;;;;;;;15.13;10.60;;;16.00;99.90;;;;;;5035895;28;21061;-80
2023/08/20 02:43:51;;;;;;;18.00;10.93;;;;;;;;;;5037420;28;20435;-79
2023/08/20 02:46:17;;;;;;;20.40;10.80;;;;;;;;;;5022195;28;20436;-79
2023/08/20 02:48:43;;;;;;;18.08;10.35;;;;;;;;;;5039490;28;20794;-79
2023/08/20 02:51:09;;;;;;;17.73;10.50;;;15.60;99.90;;;;;;5035278;28;20459;-78
2023/08/20 02:53:35;;;;;;;20.20;11.50;;;;;;;;;;5049356;28;20820;-79
2023/08/20 02:56:02;;;;;;;18.73;11.40;;;;;;;;;;5022155;28;20462;-79
2023/08/20 02:58:27;;;;;;;19.25;10.80;;;15.50;99.90;;;;;;5040008;28;20453;-79
2023/08/20 03:00:53;;;;;;;19.37;10.77;;;15.70;99.90;;;;;;5022494;28;20468;-79
2023/08/20 03:03:19;;;;;;;17.60;11.03;;;15.60;99.90;;;;;;5020376;28;20527;-79
2023/08/20 03:05:45;;;;;;;20.73;10.83;;;;;;;;;;5014635;28;20450;-78
2023/08/20 03:08:10;;;;;;;19.98;10.70;;;15.70;99.90;;;;;;5040453;28;20775;-78
2023/08/20 03:10:36;;;;;;;15.50;9.50;;;15.70;99.90;;;;;;5032373;28;20419;-78
2023/08/20 03:13:03;;;;;;;15.90;10.05;;;15.60;99.90;;;;;;5038527;28;20430;-77
2023/08/20 03:15:29;;;;;;;17.50;10.17;;;15.60;99.90;;;;;;5039821;28;20423;-77
2023/08/20 03:17:55;;;;;;;16.23;10.30;;;15.60;99.90;;;;;;5052802;28;20736;-78
2023/08/20 03:20:21;;;;;;;18.80;10.68;;;;;;;;;;5020080;28;20504;-78
2023/08/20 03:22:47;;;;;;;21.20;11.30;;;;;;;;;;5035886;28;20417;-79
2023/08/20 03:25:13;;;;;;;17.42;10.93;;;15.10;99.90;;;;;;5035400;28;20432;-78
2023/08/20 03:27:39;;;;;;;15.55;10.50;;;15.40;99.90;;;;;;5053018;28;20457;-79
2023/08/20 03:30:06;;;;;;;17.33;10.38;;;;;;;;;;5036147;28;20452;-78
2023/08/20 03:32:32;;;;;;;20.13;10.87;;;;;;;;;;5037543;28;20427;-79
2023/08/20 03:34:59;;;;;;;17.83;11.00;;;;;;;;;;5023117;28;20918;-78
2023/08/20 03:37:28;;;;;;;20.80;11.00;;;;;;;;;;5019746;28;20486;-78
2023/08/20 03:39:54;;;;;;;17.75;10.25;;;;;;;;;;5051078;28;20412;-78
2023/08/20 03:42:20;;;;;;;17.73;9.77;;;;;;;;;;5045783;28;20425;-78
2023/08/20 03:44:46;;;;;;;17.42;9.70;;;15.30;99.90;;;;;;5042767;28;20503;-80
2023/08/20 03:47:12;;;;;;;19.43;10.17;;;15.40;99.90;;;;;;5038355;28;20925;-79
2023/08/20 03:49:38;;;;;;;17.13;9.70;;;;;;;;;;5037522;28;20422;-80
2023/08/20 03:52:06;;;;;;;17.10;9.87;;;15.50;99.90;;;;;;5029199;28;20508;-79
2023/08/20 03:54:33;;;;;;;14.73;8.90;;;15.50;99.90;;;;;;5019403;28;20417;-80
2023/08/20 03:56:59;;;;;;;15.18;8.98;;;15.40;99.90;;;;;;5038157;28;20415;-80
2023/08/20 03:59:25;;;;;;;17.47;9.10;;;;;;;;;;5036339;28;20420;-80
2023/08/20 04:01:51;;;;;;;13.25;8.15;;;;;;;;;;5033954;28;20426;-80
2023/08/20 04:04:17;;;;;;;15.57;8.68;;;;;;;;;;5037506;28;20449;-80
2023/08/20 04:06:43;;;;;;;18.80;8.98;;;;;;;;;;5037110;28;20466;-80
2023/08/20 04:09:09;;;;;;;14.13;7.83;;;;;;;;;;5016437;28;20470;-79
2023/08/20 04:11:35;;;;;;;14.55;8.27;;;;;;;;;;5035183;28;20430;-80
2023/08/20 04:14:02;;;;;;;12.48;7.78;;;;;;;;;;5020489;28;20441;-80
2023/08/20 04:16:29;;;;;;;14.02;7.82;;;15.40;99.90;;;;;;5037977;28;20423;-80
2023/08/20 04:18:56;;;;;;;13.90;7.55;;;;;;;;;;5029976;28;20414;-80
2023/08/20 04:21:22;;;;;;;15.55;7.43;;;;;;;;;;5020656;28;20757;-80
2023/08/20 04:23:48;;;;;;;17.83;8.02;;;15.60;99.90;;;;;;5071497;28;20415;-79
2023/08/20 04:26:13;;;;;;;15.50;8.23;;;15.50;99.90;;;;;;5019915;28;20413;-80
2023/08/20 04:28:40;;;;;;;13.82;8.05;;;;;;;;;;5029767;28;20930;-79
2023/08/20 04:31:06;;;;;;;14.43;7.57;;;;;;;;;;5014224;28;20411;-79
2023/08/20 04:33:32;;;;;;;14.90;7.40;;;;;;;;;;5038831;28;20431;-79
2023/08/20 04:35:58;;;;;;;14.83;8.20;;;15.20;99.90;;;;;;5018015;28;20431;-80
2023/08/20 04:38:24;;;;;;;16.67;8.10;;;;;;;;;;5047207;28;20421;-79
2023/08/20 04:40:49;;;;;;;17.17;7.63;;;15.40;99.90;;;;;;5049393;28;20416;-80
2023/08/20 04:43:16;;;;;;;15.43;7.60;;;;;;;;;;5040686;28;20491;-79
2023/08/20 04:45:42;;;;;;;16.65;7.80;;;15.60;99.90;;;;;;5056730;28;20421;-79
2023/08/20 04:48:08;;;;;;;15.10;8.27;;;15.40;99.90;;;;;;5034745;28;20450;-80
2023/08/20 04:50:34;;;;;;;14.80;8.30;;;15.30;99.90;;;;;;5031819;28;20410;-79
2023/08/20 04:53:00;;;;;;;13.63;8.20;;;15.50;99.90;;;;;;5017791;28;20422;-80
2023/08/20 04:55:27;;;;;;;15.87;8.80;;;15.20;99.90;;;;;;5046854;28;20419;-79
2023/08/20 04:57:53;;;;;;;15.20;9.00;;;;;;;;;;5037155;28;20555;-79
2023/08/20 05:00:19;;;;;;;13.65;8.80;;;;;;;;;;5065073;28;20411;-80
2023/08/20 05:02:45;;;;;;;18.08;9.55;;;;;;;;;;5058330;28;20917;-79
2023/08/20 05:05:11;;;;;;;15.77;9.45;;;15.40;99.90;;;;;;5041377;28;20428;-80
2023/08/20 05:07:37;;;;;;;15.23;9.45;;;;;;;;;;4998928;28;20427;-79
2023/08/20 05:10:04;;;;;;;17.10;9.48;;;;;;;;;;5024918;28;20434;-79
2023/08/20 05:12:30;;;;;;;13.50;8.90;;;15.50;99.90;;;;;;5016602;28;20998;-80
2023/08/20 05:14:55;;;;;;;16.75;9.40;;;15.20;99.90;;;;;;5038525;28;20536;-79
2023/08/20 05:17:21;;;;;;;17.52;9.65;;;;;;;;;;4990206;28;20510;-79
2023/08/20 05:19:47;;;;;;;16.40;9.40;;;15.60;99.90;;;;;;5046630;28;20776;-80
2023/08/20 05:22:16;;;;;;;14.18;8.85;;;;;;;;;;5032224;28;20419;-79
2023/08/20 05:24:42;;;;;;;14.05;8.75;;;;;;;;;;5034690;28;20429;-79
2023/08/20 05:27:09;;;;;;;15.48;9.18;;;15.80;99.90;;;;;;5042099;28;20432;-79
2023/08/20 05:29:35;;;;;;;14.77;9.13;;;15.90;99.90;;;;;;5037496;28;20400;-79
2023/08/20 05:32:01;;;;;;;16.20;9.27;;;15.90;99.90;;;;;;5066241;28;20480;-79
2023/08/20 05:34:26;;;;;;;17.00;8.93;;;15.70;99.90;;;;;;5032295;28;20833;-79
2023/08/20 05:36:52;;;;;;;15.10;9.07;;;15.90;99.90;;;;;;5050457;28;20508;-79
2023/08/20 05:39:18;;;;;;;16.25;8.50;;;;;;;;;;5016059;28;20523;-79
2023/08/20 05:41:44;;;;;;;17.10;8.32;;;16.00;99.90;;;;;;5047105;28;20475;-78
2023/08/20 05:44:10;;;;;;;14.25;8.30;;;15.90;99.90;;;;;;5041552;28;20433;-78
2023/08/20 05:46:36;;;;;;;15.98;8.68;;;16.00;99.90;;;;;;5017402;28;20402;-77
2023/08/20 05:49:02;;;;;;;14.32;8.00;;;16.20;99.90;;;;;;5027048;28;20415;-78
2023/08/20 05:51:27;;;;;;;19.92;8.57;;;16.40;99.90;;;;;;5044302;28;20422;-79
2023/08/20 05:53:53;;;;;;;16.70;8.20;;;16.50;99.90;;;;;;5041811;28;20915;-79
2023/08/20 05:56:19;;;;;;;17.05;8.73;;;16.40;99.90;;;;;;5029462;28;20486;-78
2023/08/20 05:58:45;;;;;;;13.82;7.75;;;16.70;99.90;;;;;;5029309;28;20500;-77
2023/08/20 06:01:10;;;;;;;14.70;7.70;;;16.50;99.90;;;;;;5030917;28;20454;-78
2023/08/20 06:03:36;;;;;;;13.63;7.50;;;16.80;99.90;;;;;;4999207;28;20431;-78
2023/08/20 06:06:02;;;;;;;15.43;7.83;;;16.70;99.90;;;;;;5035905;28;20923;-77
2023/08/20 06:08:28;;;;;;;14.18;7.72;;;16.50;99.90;;;;;;5042861;28;20947;-77
2023/08/20 06:10:54;;;;;;;11.32;7.30;;;16.90;99.90;;;;;;5032395;28;20415;-76
2023/08/20 06:13:19;;;;;;;14.48;7.75;;;16.90;99.90;;;;;;5018071;28;20431;-77
2023/08/20 06:15:45;;;;;;;13.70;7.53;;;16.90;99.90;;;;;;5032815;28;20429;-78
2023/08/20 06:18:11;;;;;;;15.25;7.28;;;16.90;99.90;;;;;;5034017;28;20419;-77
2023/08/20 06:20:36;;;;;;;14.87;7.73;;;17.30;99.90;;;;;;5028993;28;20425;-78
2023/08/20 06:23:03;;;;;;;13.23;7.20;;;17.10;99.90;;;;;;5028143;28;20443;-77
2023/08/20 06:25:29;;;;;;;14.48;7.32;;;17.30;99.90;;;;;;5004699;28;20498;-78
2023/08/20 06:27:54;;;;;;;11.50;7.20;;;17.50;99.90;;;;;;5033207;28;20415;-83
2023/08/20 06:30:20;;;;;;;14.97;7.50;;;17.50;99.90;;;;;;5038950;28;20933;-82
2023/08/20 06:32:46;;;;;;;14.07;6.80;;;17.70;99.90;;;;;;5012578;28;20419;-82
2023/08/20 06:35:11;;;;;;;15.35;7.80;;;17.70;99.90;;;;;;5043822;28;20938;-82
2023/08/20 06:37:40;;;;;;;11.68;6.47;;;18.10;99.90;;;;;;5051148;28;20838;-82
2023/08/20 06:40:07;;;;;;;11.60;6.70;;;18.10;99.90;;;;;;5050379;28;20463;-87
2023/08/20 06:42:32;;;;;;;12.90;6.38;;;18.30;99.90;;;;;;5030007;28;20421;-80
2023/08/20 06:44:58;;;;;;;15.65;6.30;;;19.00;99.90;;;;;;5027863;28;20510;-79
2023/08/20 06:47:24;;;;;;;14.93;6.63;;;18.50;99.90;;;;;;5029814;28;20425;-80
2023/08/20 06:49:50;;;;;;;14.35;6.05;;;18.80;99.90;;;;;;5034100;28;20503;-81
2023/08/20 06:52:16;;;;;;;13.18;6.18;;;18.90;99.90;;;;;;5020110;28;20570;-81
2023/08/20 06:54:42;;;;;;;11.82;5.85;;;19.10;99.90;;;;;;5030265;28;20424;-80
2023/08/20 06:57:08;;;;;;;11.10;5.80;;;19.10;99.90;;;;;;5030856;28;20781;-79
2023/08/20 06:59:33;;;;;;;15.85;6.50;;;19.20;99.90;;;;;;5042043;28;20424;-77
2023/08/20 07:02:03;;;;;;;13.88;5.75;;;19.20;99.90;;;;;;5062119;28;21056;-78
2023/08/20 07:04:29;;;;;;;13.20;5.95;;;19.50;99.90;;;;;;5066879;28;20473;-78
2023/08/20 07:06:55;;;;;;;12.95;5.82;;;19.60;99.90;;;;;;5013692;28;20419;-78
2023/08/20 07:09:21;;;;;;;11.63;5.68;;;19.70;99.90;;;;;;5029700;28;20813;-79
2023/08/20 07:11:46;;;;;;;10.80;5.60;;;19.60;99.90;;;;;;5038857;28;20752;-86
2023/08/20 07:14:12;;;;;;;12.45;5.63;;;19.90;99.90;;;;;;5039533;28;20891;-86
2023/08/20 07:16:38;;;;;;;16.70;5.77;;;20.20;99.90;;;;;;5040696;28;20455;-85
2023/08/20 07:19:08;;;;;;;13.63;5.50;;;20.20;99.90;;;;;;5023700;28;20447;-85
2023/08/20 07:21:33;;;;;;;12.18;5.70;;;20.00;99.90;;;;;;5076071;28;20423;-87
2023/08/20 07:23:59;;;;;;;11.48;5.28;;;20.20;99.90;;;;;;5041689;28;20415;-88
2023/08/20 07:26:25;;;;;;;14.55;5.68;;;20.40;99.90;;;;;;5007973;28;20420;-88
2023/08/20 07:28:56;;;;;;;12.67;5.33;;;20.40;99.90;;;;;;5013490;28;20566;-89
2023/08/20 07:31:27;;;;;;;11.85;4.95;;;20.70;99.90;;;;;;5042025;28;20427;-88
2023/08/20 07:33:55;;;;;;;12.60;4.53;;;20.80;99.90;;;;;;5027395;28;20417;-89
2023/08/20 07:36:21;;;;;;;12.20;4.70;;;21.00;99.90;;;;;;5014719;28;20413;-89
2023/08/20 07:38:51;;;;;;;9.32;4.20;;;20.90;99.90;;;;;;5049175;28;20508;-88
2023/08/20 07:41:17;;;;;;;13.85;4.93;;;21.20;99.90;;;;;;5061531;28;20440;-91
2023/08/20 07:43:43;;;;;;;11.27;4.80;;;21.30;99.90;;;;;;5041248;28;20429;-89
2023/08/20 07:46:10;;;;;;;10.85;4.47;;;21.10;99.90;;;;;;5054918;28;20441;-91
2023/08/20 07:48:36;;;;;;;11.10;4.45;;;21.20;99.90;;;;;;5033479;28;20411;-89
2023/08/20 07:51:03;;;;;;;10.85;4.30;;;22.10;99.90;;;;;;5037499;28;20478;-91
2023/08/20 07:53:29;;;;;;;11.75;4.30;;;19.80;99.90;;;;;;5038350;28;20427;-91
2023/08/20 07:55:55;;;;;;;11.23;3.90;;;21.40;99.90;;;;;;5045490;28;20421;-91
2023/08/20 07:58:22;;;;;;;11.50;3.92;;;21.40;99.90;;;;;;5039087;28;20451;-91
2023/08/20 08:00:47;;;;;;;10.50;3.80;;;21.40;99.90;;;;;;5041467;28;20494;-86
2023/08/20 08:03:17;;;;;;;12.00;3.70;;;21.80;99.90;;;;;;5056052;28;20926;-87
2023/08/20 08:05:49;;;;;;;10.27;3.70;;;21.70;99.90;;;;;;5056525;28;20403;-88
2023/08/20 08:08:16;;;;;;;10.25;3.50;;;21.60;99.90;;;;;;5047256;28;20421;-87
2023/08/20 08:10:44;;;;;;;9.40;3.70;;;22.20;99.90;;;;;;5036936;28;20459;-86
2023/08/20 08:13:11;;;;;;;10.93;3.60;;;22.00;99.90;;;;;;5026037;28;20442;-87
2023/08/20 08:15:36;;;;;;;12.50;3.85;;;22.20;99.90;;;;;;5056700;28;20423;-87
2023/08/20 08:18:03;;;;;;;13.13;3.53;;;22.20;99.90;;;;;;5023100;28;20917;-87
2023/08/20 08:20:29;;;;;;;10.85;4.00;;;21.00;99.90;;;;;;5014707;28;20429;-85
2023/08/20 08:22:57;;;;;;;13.73;3.80;;;23.00;99.90;;;;;;5046447;28;20956;-86
2023/08/20 08:25:23;;;;;;;12.65;3.58;;;22.70;99.90;;;;;;5061297;28;20460;-86
2023/08/20 08:27:49;;;;;;;10.07;3.38;;;22.70;99.90;;;;;;5064442;28;20416;-87
2023/08/20 08:30:14;;;;;;;8.70;3.13;;;23.00;99.90;;;;;;5032183;28;20425;-87
2023/08/20 08:32:40;;;;;;;12.87;3.17;;;23.00;99.90;;;;;;5023550;28;20426;-87
2023/08/20 08:35:07;;;;;;;10.15;3.30;;;22.90;99.90;;;;;;5049187;28;20423;-88
2023/08/20 08:37:33;;;;;;;10.30;2.70;;;23.10;99.90;;;;;;5050006;28;20517;-88
2023/08/20 08:39:59;;;;;;;9.90;2.90;;;23.20;99.90;;;;;;5044851;28;20502;-87
2023/08/20 08:42:25;;;;;;;8.17;2.50;;;23.50;99.90;;;;;;5036230;28;20416;-90
2023/08/20 08:44:51;;;;;;;8.83;2.40;;;23.30;99.90;;;;;;5045621;28;20425;-89
2023/08/20 08:47:22;;;;;;;9.55;2.55;;;23.60;99.90;;;;;;5028252;28;20510;-78
2023/08/20 08:49:49;;;;;;;8.80;2.70;;;23.80;99.90;;;;;;5032022;28;20420;-79
2023/08/20 08:52:16;;;;;;;9.47;2.20;;;23.80;99.90;;;;;;5034982;28;20429;-79
2023/08/20 08:54:42;;;;;;;8.65;2.60;;;24.80;99.90;;;;;;5022172;28;20492;-79
2023/08/20 08:57:08;;;;;;;10.18;2.50;;;23.50;99.90;;;;;;5034271;28;20896;-89
2023/08/20 08:59:33;;;;;;;9.20;2.45;;;23.30;99.90;;;;;;5081514;28;20435;-89
2023/08/20 09:01:59;;;;;;;8.25;2.25;;;23.40;99.90;;;;;;5049050;28;20424;-90
2023/08/20 09:04:25;;;;;;;9.32;2.85;;;23.70;99.90;;;;;;5018404;28;22219;-88
2023/08/20 09:06:53;;;;;;;9.03;2.53;;;24.00;99.90;;;;;;5034477;28;20418;-79
2023/08/20 09:09:21;;;;;;;9.98;2.63;;;24.30;99.90;;;;;;5033440;28;20485;-79
2023/08/20 09:11:48;;;;;;;11.35;2.80;;;24.10;99.90;;;;;;5029806;28;20479;-79
2023/08/20 09:14:27;;;;;;;10.30;2.75;;;24.10;99.90;;;;;;5039238;28;20417;-79
2023/08/20 09:16:59;;;;;;;8.70;2.33;;;23.70;99.90;;;;;;5031127;28;20911;-77
2023/08/20 09:19:29;;;;;;;8.63;2.80;;;23.70;99.90;;;;;;5042343;28;20448;-77
2023/08/20 09:21:55;;;;;;;9.45;2.55;;;23.60;99.90;;;;;;5046860;28;20946;-78
2023/08/20 09:24:34;;;;;;;7.37;2.40;;;23.60;99.90;;;;;;5044303;28;20469;-78
2023/08/20 09:27:02;;;;;;;11.05;3.10;;;23.80;99.90;;;;;;5034581;28;20588;-78
2023/08/20 09:29:31;;;;;;;8.07;3.05;;;23.90;99.90;;;;;;5043163;28;20436;-79
2023/08/20 09:32:02;;;;;;;10.20;2.88;;;24.00;99.90;;;;;;5030783;28;20513;-77
2023/08/20 09:34:37;;;;;;;6.53;2.63;;;23.90;99.90;;;;;;5049901;28;20417;-78
2023/08/20 09:37:03;;;;;;;8.70;2.70;;;24.10;99.90;;;;;;5048374;28;20911;-78
2023/08/20 09:39:29;;;;;;;6.13;2.50;;;23.80;99.90;;;;;;5025679;28;20434;-78
2023/08/20 09:41:57;;;;;;;5.72;2.20;;;24.10;99.90;;;;;;5030211;28;20415;-78
2023/08/20 09:44:24;;;;;;;7.00;2.50;;;24.00;99.90;;;;;;5012514;28;20783;-77
2023/08/20 09:46:50;;;;;;;7.13;2.33;;;24.40;99.90;;;;;;5045179;28;20421;-76
2023/08/20 09:49:19;;;;;;;6.93;3.22;;;24.70;99.90;;;;;;5065117;28;20968;-88
2023/08/20 09:51:51;;;;;;;6.50;2.20;;;24.80;99.90;;;;;;5058035;28;20425;-87
2023/08/20 09:54:26;;;;;;;6.85;2.35;;;24.50;99.90;;;;;;5043575;28;20416;-86
2023/08/20 09:56:58;;;;;;;7.00;2.30;;;24.50;99.90;;;;;;5027809;28;20489;-85
2023/08/20 09:59:24;;;;;;;7.00;2.40;;;25.00;99.90;;;;;;5045779;28;20459;-84
2023/08/20 10:01:51;;;;;;;6.47;2.33;;;25.30;99.90;;;;;;5032666;28;20873;-86
2023/08/20 10:04:18;;;;;;;9.25;2.42;;;24.70;99.90;;;;;;5033004;28;20937;-79
2023/08/20 10:06:44;;;;;;;5.13;1.98;;;24.80;99.90;;;;;;5031996;28;20988;-86
2023/08/20 10:09:10;;;;;;;6.93;2.00;;;24.90;99.90;;;;;;5029364;28;20496;-84
2023/08/20 10:11:37;;;;;;;10.20;2.40;;;24.90;99.90;;;;;;5033709;28;20428;-85
2023/08/20 10:14:03;;;;;;;8.30;2.15;;;25.00;99.90;;;;;;5034958;28;20429;-84
2023/08/20 10:16:29;;;;;;;6.45;1.98;;;25.30;99.90;;;;;;5053377;28;20500;-84
2023/08/20 10:18:58;;;;;;;6.63;2.17;;;25.40;99.90;;;;;;5048841;28;20512;-83
2023/08/20 10:21:25;;;;;;;7.07;1.92;;;25.60;99.90;;;;;;5032882;28;20438;-76
2023/08/20 10:23:51;;;;;;;8.95;2.30;;;25.60;99.90;;;;;;5034105;28;20903;-77
2023/08/20 10:26:21;;;;;;;6.25;1.90;;;25.40;99.90;;;;;;5057925;28;20419;-77
2023/08/20 10:28:47;;;;;;;8.10;2.17;;;25.50;99.90;;;;;;5069021;28;20411;-77
2023/08/20 10:31:15;;;;;;;6.13;1.90;;;26.10;99.90;;;;;;5041212;28;20771;-77
2023/08/20 10:33:47;;;;;;;7.67;2.23;;;25.50;99.90;;;;;;5072993;28;20541;-80
2023/08/20 10:36:28;;;;;;;6.20;1.95;;;27.10;99.90;;;;;;5045554;28;20451;-79
2023/08/20 10:38:57;;;;;;;8.93;1.98;;;25.70;99.90;;;;;;5050844;28;20430;-77
2023/08/20 10:41:30;;;;;;;6.13;1.85;;;25.70;99.90;;;;;;5048439;28;20415;-78
2023/08/20 10:43:59;;;;;;;9.52;2.67;;;25.90;99.90;;;;;;5031712;28;20786;-78
2023/08/20 10:46:30;;;;;;;8.13;1.90;;;26.40;99.90;;;;;;5052666;28;20929;-79
2023/08/20 10:48:58;;;;;;;5.75;1.98;;;26.80;99.90;;;;;;5070730;28;20943;-79
2023/08/20 10:51:24;;;;;;;6.40;1.98;;;26.70;99.90;;;;;;5051423;28;20931;-78
2023/08/20 10:54:04;;;;;;;5.50;2.20;;;26.80;99.90;;;;;;5050633;28;20454;-78
2023/08/20 10:56:53;;;;;;;7.90;1.98;;;26.40;99.90;;;;;;5051899;28;20451;-78
2023/08/20 10:59:29;;;;;;;7.30;2.20;;;26.90;99.90;;;;;;5068523;28;20411;-77
2023/08/20 11:01:59;;;;;;;5.90;1.92;;;26.60;99.90;;;;;;5068415;28;20426;-78
2023/08/20 11:04:32;;;;;;;6.40;1.70;;;27.10;99.90;;;;;;5030713;28;20778;-78
2023/08/20 11:06:59;;;;;;;6.90;2.25;;;27.00;99.90;;;;;;5064041;28;20804;-78
2023/08/20 11:09:29;;;;;;;6.75;2.15;;;26.90;99.90;;;;;;5052018;28;20514;-78
2023/08/20 11:11:55;;;;;;;6.30;2.03;;;26.70;99.90;;;;;;5036455;28;20915;-77
2023/08/20 11:14:22;;;;;;;6.57;1.90;;;26.60;99.90;;;;;;5056221;28;20444;-84
2023/08/20 11:16:49;;;;;;;8.70;2.20;;;26.40;99.90;;;;;;5055620;28;20416;-84
2023/08/20 11:19:18;;;;;;;7.03;2.08;;;26.40;99.90;;;;;;5028652;28;20415;-84
2023/08/20 11:21:45;;;;;;;6.55;2.00;;;26.20;99.90;;;;;;5051015;28;20421;-84
2023/08/20 11:24:11;;;;;;;8.82;2.63;;;26.40;99.90;;;;;;5018362;28;20457;-83
2023/08/20 11:26:41;;;;;;;5.37;2.17;;;26.20;99.90;;;;;;5027174;28;20441;-83
2023/08/20 11:29:07;;;;;;;6.68;2.00;;;26.20;99.90;;;;;;5051415;28;20502;-84
2023/08/20 11:31:34;;;;;;;6.50;2.10;;;25.80;99.90;;;;;;5017565;28;20421;-84
2023/08/20 11:34:02;;;;;;;7.97;2.17;;;25.60;99.90;;;;;;5029963;28;20420;-80
2023/08/20 11:36:27;;;;;;;9.40;2.10;;;25.50;99.90;;;;;;5044252;28;20483;-84
2023/08/20 11:38:53;;;;;;;6.93;1.90;;;25.60;99.90;;;;;;5033116;28;20467;-84
2023/08/20 11:41:23;;;;;;;7.35;2.17;;;25.30;99.90;;;;;;5036873;28;20934;-84
2023/08/20 11:43:50;;;;;;;5.45;1.92;;;25.20;99.90;;;;;;5044886;28;20509;-83
2023/08/20 11:46:19;;;;;;;6.45;2.20;;;25.40;99.90;;;;;;5014563;28;20425;-80
2023/08/20 11:49:00;;;;;;;7.75;2.05;;;25.30;99.90;;;;;;5038102;28;20451;-80
2023/08/20 11:51:27;;;;;;;6.68;2.20;;;25.30;99.90;;;;;;5035635;28;20423;-79
2023/08/20 11:53:52;;;;;;;6.22;1.70;;;25.50;99.90;;;;;;5052302;28;20427;-81
2023/08/20 11:56:18;;;;;;;6.82;2.30;;;25.50;99.90;;;;;;5055633;28;20469;-81
2023/08/20 11:58:50;;;;;;;4.30;1.60;;;25.80;99.90;;;;;;5020678;28;20421;-82
2023/08/20 12:01:18;;;;;;;7.72;1.75;;;26.30;99.90;;;;;;5036651;28;20428;-80
2023/08/20 12:03:46;;;;;;;6.65;1.85;;;26.40;99.90;;;;;;5037890;28;21085;-82
2023/08/20 12:06:19;;;;;;;5.28;1.77;;;26.90;99.90;;;;;;5050506;28;20425;-81
2023/08/20 12:08:45;;;;;;;7.93;1.77;;;26.90;99.90;;;;;;5054322;28;20421;-80
2023/08/20 12:11:11;;;;;;;6.65;1.80;;;27.70;99.90;;;;;;5022389;28;20415;-82
2023/08/20 12:13:37;;;;;;;5.57;1.88;;;27.60;99.90;;;;;;5050345;28;20436;-83
2023/08/20 12:16:03;;;;;;;6.57;2.07;;;27.30;99.90;;;;;;5024734;28;20423;-84
2023/08/20 12:18:29;;;;;;;5.20;1.88;;;27.50;99.90;;;;;;5040934;28;20434;-84
2023/08/20 12:20:55;;;;;;;5.90;2.23;;;27.30;99.90;;;;;;5037423;28;20422;-84
2023/08/20 12:23:21;;;;;;;8.68;2.10;;;26.90;99.90;;;;;;5049917;28;20463;-83
2023/08/20 12:25:51;;;;;;;8.73;2.20;;;26.40;99.90;;;;;;5038567;28;20419;-83
2023/08/20 12:28:17;;;;;;;7.05;1.80;;;26.20;99.90;;;;;;5034251;28;20453;-83
2023/08/20 12:30:44;;;;;;;7.20;1.75;;;26.50;99.90;;;;;;5012562;28;20942;-81
2023/08/20 12:33:10;;;;;;;5.85;1.42;;;26.50;99.90;;;;;;5032668;28;20462;-80
2023/08/20 12:35:36;;;;;;;6.78;2.00;;;26.60;99.90;;;;;;5036704;28;20435;-80
2023/08/20 12:38:03;;;;;;;5.77;1.70;;;27.00;99.90;;;;;;5052568;28;20458;-80
2023/08/20 12:40:29;;;;;;;6.20;1.88;;;27.20;99.90;;;;;;5038804;28;20423;-80
2023/08/20 12:42:54;;;;;;;7.22;2.00;;;27.10;99.90;;;;;;5067923;28;20477;-80
2023/08/20 12:45:20;;;;;;;7.77;2.00;;;27.20;99.90;;;;;;5045044;28;20936;-80
2023/08/20 12:47:46;;;;;;;5.70;1.40;;;27.60;99.90;;;;;;5064338;28;20442;-79
2023/08/20 12:50:14;;;;;;;5.80;1.87;;;27.30;99.90;;;;;;5047060;28;20423;-84
2023/08/20 12:52:40;;;;;;;6.43;1.77;;;25.80;99.90;;;;;;5020315;28;20871;-86
2023/08/20 12:55:06;;;;;;;7.80;2.10;;;27.90;99.90;;;;;;5032119;28;20439;-84